Time;durP1;ratioP1;P1;durP2;ratioP2;P2;SDS_P1;SDS_P2;PMS_P1;PMS_P2;Temp;Humidity;BMP_temperature;BMP_pressure;BME280_temperature;BME280_humidity;BME280_pressure;Samples;Min_cycle;Max_cycle;Signal;HPM_P1;HPM_P2
2023/05/01 00:00:04;;;;;;;10.70;5.50;;;;;;;;;;747780;186;1034413;-63
2023/05/01 00:02:30;;;;;;;9.90;6.03;;;;;;;;;;762430;182;816946;-66
2023/05/01 00:04:56;;;;;;;10.77;6.70;;;;;;;;;;766020;182;816914;-66
2023/05/01 00:07:23;;;;;;;9.30;5.20;;;;;;;;;;764899;182;919936;-66
2023/05/01 00:09:48;;;;;;;9.77;6.27;;;;;;;;;;761194;182;918797;-65
2023/05/01 00:12:13;;;;;;;10.33;6.50;;;;;;;;;;766314;181;821249;-62
2023/05/01 00:14:40;;;;;;;9.30;5.70;;;;;;;;;;765895;182;809530;-63
2023/05/01 00:17:05;;;;;;;10.87;5.60;;;;;;;;;;760183;182;944245;-65
2023/05/01 00:19:31;;;;;;;7.07;6.00;;;;;;;;;;770351;182;811820;-65
2023/05/01 00:21:57;;;;;;;9.43;5.90;;;;;;;;;;762476;182;954858;-66
2023/05/01 00:24:23;;;;;;;10.33;6.93;;;;;;;;;;760609;182;918972;-66
2023/05/01 00:26:49;;;;;;;13.13;6.43;;;;;;;;;;768415;182;887338;-66
2023/05/01 00:29:15;;;;;;;9.33;5.90;;;;;;;;;;765521;182;919507;-66
2023/05/01 00:31:41;;;;;;;7.60;5.60;;;;;;;;;;760294;183;916469;-67
2023/05/01 00:34:06;;;;;;;14.07;5.05;;;;;;;;;;760843;182;1017180;-64
2023/05/01 00:36:32;;;;;;;10.70;6.07;;;;;;;;;;766083;180;913790;-63
2023/05/01 00:38:58;;;;;;;9.03;6.23;;;;;;;;;;758928;182;914835;-66
2023/05/01 00:41:24;;;;;;;10.93;6.37;;;;;;;;;;764494;181;919576;-67
2023/05/01 00:43:50;;;;;;;28.03;8.13;;;;;;;;;;772660;181;920672;-63
2023/05/01 00:46:17;;;;;;;18.20;6.40;;;;;;;;;;769219;181;918420;-67
2023/05/01 00:48:41;;;;;;;12.55;7.45;;;;;;;;;;767233;182;943106;-66
2023/05/01 00:51:07;;;;;;;12.50;7.07;;;;;;;;;;767146;183;919339;-66
2023/05/01 00:53:33;;;;;;;14.07;6.70;;;;;;;;;;760637;182;815306;-66
2023/05/01 00:55:59;;;;;;;10.20;7.03;;;;;;;;;;766020;182;921672;-63
2023/05/01 00:58:25;;;;;;;9.60;7.70;;;;;;;;;;774641;182;864963;-63
2023/05/01 01:00:51;;;;;;;9.53;6.70;;;;;;;;;;765356;180;868217;-63
2023/05/01 01:03:16;;;;;;;7.90;5.93;;;;;;;;;;759136;182;847222;-63
2023/05/01 01:05:42;;;;;;;10.40;6.10;;;;;;;;;;756990;182;919831;-62
2023/05/01 01:08:08;;;;;;;8.20;6.13;;;;;;;;;;770488;182;913041;-63
2023/05/01 01:10:38;;;;;;;8.30;6.57;;;;;;;;;;757542;182;918690;-66
2023/05/01 01:13:03;;;;;;;9.70;6.30;;;;;;;;;;748678;183;919096;-63
2023/05/01 01:15:29;;;;;;;12.03;7.77;;;;;;;;;;767102;182;918559;-66
2023/05/01 01:17:56;;;;;;;11.63;6.63;;;;;;;;;;757176;182;922757;-65
2023/05/01 01:20:23;;;;;;;11.50;6.93;;;;;;;;;;753501;183;818566;-64
2023/05/01 01:22:50;;;;;;;12.40;7.67;;;;;;;;;;762308;182;918035;-63
2023/05/01 01:25:22;;;;;;;12.80;7.00;;;;;;;;;;754456;184;920890;-63
2023/05/01 01:27:54;;;;;;;9.17;6.80;;;;;;;;;;758639;182;916846;-63
2023/05/01 01:30:31;;;;;;;9.88;7.82;;;;;;;;;;760299;182;928879;-63
2023/05/01 01:33:03;;;;;;;11.00;7.13;;;;;;;;;;750128;186;919866;-63
2023/05/01 01:35:30;;;;;;;14.07;7.63;;;;;;;;;;762409;183;920283;-63
2023/05/01 01:37:56;;;;;;;10.35;6.82;;;;;;;;;;769175;182;877882;-65
2023/05/01 01:40:22;;;;;;;12.40;7.77;;;;;;;;;;757776;181;918314;-65
2023/05/01 01:42:49;;;;;;;12.80;7.53;;;;;;;;;;759216;182;920865;-65
2023/05/01 01:45:15;;;;;;;11.73;8.10;;;;;;;;;;765070;180;919023;-65
2023/05/01 01:47:41;;;;;;;12.50;8.53;;;;;;;;;;756847;182;931301;-66
2023/05/01 01:50:07;;;;;;;15.57;8.57;;;;;;;;;;754512;183;858704;-66
2023/05/01 01:52:33;;;;;;;18.30;9.53;;;;;;;;;;757541;180;852135;-63
2023/05/01 01:55:04;;;;;;;13.87;8.73;;;;;;;;;;758960;184;816004;-65
2023/05/01 01:57:27;;;;;;;15.10;8.83;;;;;;;;;;734007;189;917690;-65
2023/05/01 01:59:53;;;;;;;16.80;10.40;;;;;;;;;;764987;182;816929;-65
2023/05/01 02:02:19;;;;;;;16.35;10.00;;;;;;;;;;760580;183;917439;-62
2023/05/01 02:04:45;;;;;;;16.67;10.13;;;;;;;;;;751518;183;918446;-65
2023/05/01 02:07:11;;;;;;;16.63;11.17;;;;;;;;;;751414;180;915473;-65
2023/05/01 02:09:37;;;;;;;22.00;10.40;;;;;;;;;;771391;182;856917;-65
2023/05/01 02:12:03;;;;;;;14.77;9.90;;;;;;;;;;762900;182;921674;-64
2023/05/01 02:14:28;;;;;;;14.50;11.07;;;;;;;;;;765972;182;919090;-63
2023/05/01 02:16:55;;;;;;;18.33;10.83;;;;;;;;;;757063;182;921227;-65
2023/05/01 02:19:21;;;;;;;17.13;10.87;;;;;;;;;;763478;182;941399;-65
2023/05/01 02:21:47;;;;;;;15.27;10.30;;;;;;;;;;755713;182;919035;-62
2023/05/01 02:24:13;;;;;;;12.80;10.30;;;;;;;;;;765169;182;929086;-63
2023/05/01 02:26:38;;;;;;;14.47;9.57;;;;;;;;;;762497;182;921106;-65
2023/05/01 02:29:06;;;;;;;18.33;10.20;;;;;;;;;;762293;181;818749;-65
2023/05/01 02:31:30;;;;;;;16.60;9.80;;;;;;;;;;762523;182;922414;-67
2023/05/01 02:33:56;;;;;;;16.03;10.53;;;;;;;;;;768588;181;919081;-65
2023/05/01 02:36:22;;;;;;;17.43;11.17;;;;;;;;;;761672;182;917840;-64
2023/05/01 02:38:49;;;;;;;23.83;11.70;;;;;;;;;;743505;186;923781;-65
2023/05/01 02:41:13;;;;;;;21.23;11.17;;;;;;;;;;760964;181;917484;-62
2023/05/01 02:43:39;;;;;;;18.00;12.97;;;;;;;;;;768315;182;881103;-65
2023/05/01 02:46:05;;;;;;;19.07;12.23;;;;;;;;;;766825;182;816955;-65
2023/05/01 02:48:31;;;;;;;21.57;12.43;;;;;;;;;;757235;182;925016;-62
2023/05/01 02:50:57;;;;;;;17.40;12.20;;;;;;;;;;765482;182;919691;-66
2023/05/01 02:53:23;;;;;;;19.35;10.57;;;;;;;;;;760202;182;919549;-65
2023/05/01 02:55:48;;;;;;;18.27;11.40;;;;;;;;;;763363;182;915639;-64
2023/05/01 02:58:15;;;;;;;17.73;10.53;;;;;;;;;;768699;182;919181;-63
2023/05/01 03:00:41;;;;;;;15.93;10.13;;;;;;;;;;763112;181;921839;-65
2023/05/01 03:03:06;;;;;;;17.80;10.77;;;;;;;;;;766733;182;920785;-65
2023/05/01 03:05:32;;;;;;;20.08;11.45;;;;;;;;;;761545;183;918602;-65
2023/05/01 03:07:58;;;;;;;16.37;10.00;;;;;;;;;;757655;181;916195;-65
2023/05/01 03:10:24;;;;;;;14.90;10.03;;;;;;;;;;765688;181;817906;-65
2023/05/01 03:12:50;;;;;;;13.27;9.05;;;;;;;;;;760578;181;917856;-63
2023/05/01 03:15:17;;;;;;;17.20;10.07;;;;;;;;;;769230;181;919226;-64
2023/05/01 03:17:41;;;;;;;18.77;12.03;;;;;;;;;;763539;182;751294;-63
2023/05/01 03:20:09;;;;;;;17.30;10.73;;;;;;;;;;744104;184;919206;-63
2023/05/01 03:22:34;;;;;;;15.87;10.40;;;;;;;;;;764244;182;919169;-66
2023/05/01 03:25:00;;;;;;;13.17;9.63;;;;;;;;;;755664;182;919169;-65
2023/05/01 03:27:25;;;;;;;12.40;8.53;;;;;;;;;;762123;181;919751;-65
2023/05/01 03:29:51;;;;;;;16.60;10.40;;;;;;;;;;769911;182;916399;-66
2023/05/01 03:32:17;;;;;;;16.47;10.63;;;;;;;;;;759761;182;913764;-65
2023/05/01 03:34:44;;;;;;;19.33;11.40;;;;;;;;;;763156;182;917488;-63
2023/05/01 03:37:09;;;;;;;16.50;9.53;;;;;;;;;;764316;182;917302;-63
2023/05/01 03:39:35;;;;;;;14.60;10.53;;;;;;;;;;767544;182;918551;-64
2023/05/01 03:42:01;;;;;;;14.43;8.93;;;;;;;;;;759717;182;918701;-65
2023/05/01 03:44:26;;;;;;;14.30;9.30;;;;;;;;;;762922;182;921324;-65
2023/05/01 03:46:52;;;;;;;15.23;9.37;;;;;;;;;;769975;182;926677;-65
2023/05/01 03:49:18;;;;;;;14.00;9.80;;;;;;;;;;765735;182;918226;-65
2023/05/01 03:51:44;;;;;;;14.03;9.63;;;;;;;;;;756343;182;918625;-66
2023/05/01 03:54:10;;;;;;;16.90;9.40;;;;;;;;;;763905;182;918568;-63
2023/05/01 03:56:37;;;;;;;12.97;9.00;;;;;;;;;;761579;181;920361;-63
2023/05/01 03:59:01;;;;;;;14.80;7.70;;;;;;;;;;761864;182;918755;-64
2023/05/01 04:01:27;;;;;;;12.87;9.27;;;;;;;;;;767581;181;918977;-65
2023/05/01 04:03:53;;;;;;;16.77;10.10;;;;;;;;;;768130;181;919021;-63
2023/05/01 04:06:19;;;;;;;17.10;10.60;;;;;;;;;;762596;182;1068320;-65
2023/05/01 04:08:45;;;;;;;15.67;10.93;;;;;;;;;;761778;182;839061;-65
2023/05/01 04:11:11;;;;;;;16.63;10.40;;;;;;;;;;771843;182;764386;-66
2023/05/01 04:13:36;;;;;;;17.77;11.97;;;;;;;;;;766142;181;918620;-63
2023/05/01 04:16:02;;;;;;;20.83;12.27;;;;;;;;;;765204;182;816820;-64
2023/05/01 04:18:28;;;;;;;18.03;12.17;;;;;;;;;;768790;182;918223;-63
2023/05/01 04:20:54;;;;;;;16.87;11.30;;;;;;;;;;763079;182;938410;-64
2023/05/01 04:23:20;;;;;;;19.90;13.33;;;;;;;;;;765072;181;919290;-63
2023/05/01 04:25:46;;;;;;;16.13;12.60;;;;;;;;;;761273;181;918531;-63
2023/05/01 04:28:12;;;;;;;19.07;13.47;;;;;;;;;;768856;180;915453;-63
2023/05/01 04:30:38;;;;;;;20.43;12.87;;;;;;;;;;761047;181;941739;-64
2023/05/01 04:33:10;;;;;;;28.27;14.93;;;;;;;;;;761821;182;917459;-65
2023/05/01 04:35:29;;;;;;;21.77;13.63;;;;;;;;;;769235;182;918348;-63
2023/05/01 04:37:55;;;;;;;24.13;14.23;;;;;;;;;;762421;182;917454;-63
2023/05/01 04:40:21;;;;;;;20.47;13.57;;;;;;;;;;765431;181;916654;-64
2023/05/01 04:42:47;;;;;;;20.90;13.60;;;;;;;;;;770386;181;918741;-63
2023/05/01 04:45:12;;;;;;;22.40;14.80;;;;;;;;;;762832;182;921747;-65
2023/05/01 04:47:38;;;;;;;15.40;11.00;;;;;;;;;;764445;181;919770;-62
2023/05/01 04:50:05;;;;;;;18.40;13.10;;;;;;;;;;766169;182;844577;-63
2023/05/01 04:52:30;;;;;;;19.03;12.40;;;;;;;;;;753951;183;917517;-64
2023/05/01 04:54:56;;;;;;;21.97;12.77;;;;;;;;;;759956;182;956522;-61
2023/05/01 04:57:22;;;;;;;19.60;11.60;;;;;;;;;;764030;182;947345;-62
2023/05/01 04:59:48;;;;;;;20.13;13.20;;;;;;;;;;769831;182;921285;-61
2023/05/01 05:02:14;;;;;;;24.33;11.60;;;;;;;;;;759319;182;916059;-62
2023/05/01 05:04:40;;;;;;;15.73;10.70;;;;;;;;;;751134;186;912290;-62
2023/05/01 05:07:06;;;;;;;17.40;11.80;;;;;;;;;;768673;182;811757;-61
2023/05/01 05:09:31;;;;;;;17.60;11.67;;;;;;;;;;761796;182;937362;-61
2023/05/01 05:11:57;;;;;;;15.00;9.87;;;;;;;;;;764716;182;917393;-61
2023/05/01 05:14:23;;;;;;;17.52;11.05;;;;;;;;;;768728;182;922491;-61
2023/05/01 05:16:49;;;;;;;17.10;10.20;;;;;;;;;;757365;182;1019039;-62
2023/05/01 05:19:15;;;;;;;17.53;9.53;;;;;;;;;;759536;181;918948;-61
2023/05/01 05:21:41;;;;;;;16.57;11.67;;;;;;;;;;763216;182;877704;-61
2023/05/01 05:24:06;;;;;;;20.73;13.43;;;;;;;;;;770560;181;760731;-61
2023/05/01 05:26:32;;;;;;;15.50;10.27;;;;;;;;;;762136;182;892670;-61
2023/05/01 05:28:58;;;;;;;15.90;10.50;;;;;;;;;;761586;182;918884;-60
2023/05/01 05:31:24;;;;;;;16.67;11.10;;;;;;;;;;765715;182;918695;-61
2023/05/01 05:33:50;;;;;;;15.00;9.87;;;;;;;;;;763418;181;919253;-61
2023/05/01 05:36:16;;;;;;;12.37;10.30;;;;;;;;;;764902;182;919154;-61
2023/05/01 05:38:42;;;;;;;18.33;11.03;;;;;;;;;;769950;182;927880;-61
2023/05/01 05:41:08;;;;;;;19.10;11.63;;;;;;;;;;763549;182;920533;-61
2023/05/01 05:43:33;;;;;;;16.43;10.23;;;;;;;;;;752025;182;920919;-61
2023/05/01 05:45:59;;;;;;;17.30;12.00;;;;;;;;;;747778;184;916391;-61
2023/05/01 05:48:26;;;;;;;17.63;12.33;;;;;;;;;;764381;181;819426;-61
2023/05/01 05:50:51;;;;;;;24.20;11.47;;;;;;;;;;761633;182;916373;-62
2023/05/01 05:53:17;;;;;;;19.33;11.37;;;;;;;;;;763063;179;926950;-61
2023/05/01 05:55:44;;;;;;;21.80;11.67;;;;;;;;;;764260;181;820031;-61
2023/05/01 05:58:10;;;;;;;20.07;12.10;;;;;;;;;;750586;182;935797;-62
2023/05/01 06:00:35;;;;;;;19.35;11.90;;;;;;;;;;756170;182;878647;-62
2023/05/01 06:03:01;;;;;;;19.53;12.37;;;;;;;;;;759390;184;918189;-62
2023/05/01 06:05:27;;;;;;;20.67;11.57;;;;;;;;;;753203;182;917259;-61
2023/05/01 06:07:53;;;;;;;20.62;13.25;;;;;;;;;;759454;182;919613;-61
2023/05/01 06:10:19;;;;;;;19.97;12.87;;;;;;;;;;767952;182;820043;-62
2023/05/01 06:12:45;;;;;;;17.30;11.33;;;;;;;;;;766442;182;817142;-63
2023/05/01 06:15:14;;;;;;;16.33;12.03;;;;;;;;;;763352;181;852690;-62
2023/05/01 06:17:36;;;;;;;23.90;13.83;;;;;;;;;;759076;182;918364;-63
2023/05/01 06:20:04;;;;;;;15.10;10.70;;;;;;;;;;771559;181;917622;-62
2023/05/01 06:22:28;;;;;;;21.83;13.67;;;;;;;;;;760321;182;919945;-63
2023/05/01 06:24:54;;;;;;;21.00;12.70;;;;;;;;;;765615;181;917221;-63
2023/05/01 06:27:20;;;;;;;18.60;12.60;;;;;;;;;;771306;181;905442;-63
2023/05/01 06:29:46;;;;;;;22.03;12.40;;;;;;;;;;768695;181;841195;-62
2023/05/01 06:32:12;;;;;;;28.00;13.67;;;;;;;;;;761521;182;921050;-61
2023/05/01 06:34:37;;;;;;;24.40;13.10;;;;;;;;;;767186;181;935152;-62
2023/05/01 06:37:06;;;;;;;22.60;13.27;;;;;;;;;;753501;181;786380;-62
2023/05/01 06:39:29;;;;;;;26.13;12.43;;;;;;;;;;754128;181;916959;-62
2023/05/01 06:41:55;;;;;;;20.83;14.27;;;;;;;;;;765194;182;922597;-63
2023/05/01 06:44:22;;;;;;;20.30;12.10;;;;;;;;;;770261;182;920016;-62
2023/05/01 06:46:48;;;;;;;19.37;12.30;;;;;;;;;;771076;180;645940;-62
2023/05/01 06:49:13;;;;;;;16.90;9.17;;;;;;;;;;769697;182;633954;-63
2023/05/01 06:51:39;;;;;;;17.27;11.90;;;;;;;;;;761650;183;850684;-63
2023/05/01 06:54:05;;;;;;;25.30;12.90;;;;;;;;;;757591;181;919418;-64
2023/05/01 06:56:31;;;;;;;19.27;10.77;;;;;;;;;;761803;182;916202;-63
2023/05/01 06:58:57;;;;;;;17.30;10.20;;;;;;;;;;769993;181;816678;-62
2023/05/01 07:01:23;;;;;;;18.77;9.90;;;;;;;;;;763207;182;916291;-62
2023/05/01 07:03:48;;;;;;;20.47;11.57;;;;;;;;;;754335;185;627329;-63
2023/05/01 07:06:14;;;;;;;14.80;9.10;;;;;;;;;;767744;182;643944;-63
2023/05/01 07:08:40;;;;;;;22.63;10.17;;;;;;;;;;773182;182;622274;-63
2023/05/01 07:11:06;;;;;;;16.70;9.00;;;;;;;;;;754068;184;657253;-62
2023/05/01 07:13:32;;;;;;;16.25;9.50;;;;;;;;;;765464;182;918029;-62
2023/05/01 07:15:58;;;;;;;15.33;9.47;;;;;;;;;;766417;182;864950;-62
2023/05/01 07:18:23;;;;;;;17.10;9.10;;;;;;;;;;764050;181;918810;-62
2023/05/01 07:20:49;;;;;;;12.00;7.40;;;;;;;;;;762792;182;928020;-64
2023/05/01 07:23:15;;;;;;;20.90;11.23;;;;;;;;;;764741;182;1634864;-62
2023/05/01 07:25:43;;;;;;;11.90;7.90;;;;;;;;;;766989;182;901974;-62
2023/05/01 07:28:07;;;;;;;17.90;10.50;;;;;;;;;;758366;182;1015770;-62
2023/05/01 07:30:33;;;;;;;16.03;7.60;;;;;;;;;;759254;182;868186;-63
2023/05/01 07:32:59;;;;;;;13.00;6.33;;;;;;;;;;765940;182;916272;-62
2023/05/01 07:35:25;;;;;;;14.80;8.53;;;;;;;;;;768938;179;914222;-63
2023/05/01 07:37:51;;;;;;;9.80;6.80;;;;;;;;;;767801;181;919102;-63
2023/05/01 07:40:17;;;;;;;11.50;7.17;;;;;;;;;;771884;182;623522;-64
2023/05/01 07:42:43;;;;;;;11.23;7.30;;;;;;;;;;760967;182;919715;-64
2023/05/01 07:45:09;;;;;;;15.50;7.53;;;;;;;;;;757994;182;920430;-63
2023/05/01 07:47:35;;;;;;;16.17;7.43;;;;;;;;;;769202;181;918293;-62
2023/05/01 07:50:01;;;;;;;13.10;6.30;;;;;;;;;;761891;182;913895;-64
2023/05/01 07:52:26;;;;;;;11.03;5.93;;;;;;;;;;757307;183;919483;-63
2023/05/01 07:54:52;;;;;;;11.17;7.40;;;;;;;;;;758205;182;843522;-63
2023/05/01 07:57:18;;;;;;;10.63;5.00;;;;;;;;;;769132;181;819253;-64
2023/05/01 07:59:44;;;;;;;15.13;8.00;;;;;;;;;;768388;181;919231;-63
2023/05/01 08:02:12;;;;;;;16.10;8.33;;;;;;;;;;768059;182;920292;-63
2023/05/01 08:04:36;;;;;;;13.23;6.90;;;;;;;;;;768772;182;918113;-63
2023/05/01 08:07:02;;;;;;;10.63;5.83;;;;;;;;;;755989;182;915912;-64
2023/05/01 08:09:28;;;;;;;7.83;4.93;;;;;;;;;;760411;182;910127;-63
2023/05/01 08:11:53;;;;;;;10.33;6.27;;;;;;;;;;763747;182;920705;-63
2023/05/01 08:14:19;;;;;;;12.60;5.77;;;;;;;;;;758169;181;882398;-64
2023/05/01 08:16:45;;;;;;;10.18;5.75;;;;;;;;;;767216;181;811995;-64
2023/05/01 08:19:11;;;;;;;8.53;5.20;;;;;;;;;;762599;182;919856;-64
2023/05/01 08:21:37;;;;;;;12.07;5.80;;;;;;;;;;763478;180;919306;-64
2023/05/01 08:24:03;;;;;;;12.07;5.27;;;;;;;;;;761258;182;918776;-64
2023/05/01 08:26:29;;;;;;;12.48;5.93;;;;;;;;;;761948;182;922119;-64
2023/05/01 08:28:54;;;;;;;15.17;5.50;;;;;;;;;;766894;183;920350;-64
2023/05/01 08:31:20;;;;;;;10.27;5.13;;;;;;;;;;756334;182;920992;-63
2023/05/01 08:33:46;;;;;;;13.30;5.03;;;;;;;;;;769549;181;916968;-63
2023/05/01 08:36:12;;;;;;;11.00;5.20;;;;;;;;;;771281;182;916128;-63
2023/05/01 08:38:38;;;;;;;8.80;4.83;;;;;;;;;;753336;182;924493;-63
2023/05/01 08:41:04;;;;;;;12.37;5.70;;;;;;;;;;755437;182;921458;-63
2023/05/01 08:43:30;;;;;;;8.50;4.90;;;;;;;;;;762952;180;920069;-63
2023/05/01 08:45:55;;;;;;;10.33;4.60;;;;;;;;;;758751;182;915892;-63
2023/05/01 08:48:22;;;;;;;9.63;4.40;;;;;;;;;;762408;182;919548;-63
2023/05/01 08:50:47;;;;;;;10.03;4.73;;;;;;;;;;766733;182;861317;-64
2023/05/01 08:53:16;;;;;;;12.83;4.37;;;;;;;;;;766575;182;919611;-63
2023/05/01 08:55:42;;;;;;;8.27;4.60;;;;;;;;;;766209;181;921206;-64
2023/05/01 08:58:07;;;;;;;9.10;4.30;;;;;;;;;;765016;180;918941;-63
2023/05/01 09:00:34;;;;;;;8.50;5.10;;;;;;;;;;769375;182;857029;-63
2023/05/01 09:03:01;;;;;;;7.50;4.90;;;;;;;;;;767218;182;916795;-64
2023/05/01 09:05:26;;;;;;;10.03;4.90;;;;;;;;;;762356;182;921400;-63
2023/05/01 09:07:52;;;;;;;6.63;4.70;;;;;;;;;;769166;182;920630;-64
2023/05/01 09:10:18;;;;;;;6.27;4.87;;;;;;;;;;764253;182;888477;-64
2023/05/01 09:12:44;;;;;;;14.93;5.50;;;;;;;;;;762827;182;941084;-64
2023/05/01 09:15:09;;;;;;;6.40;4.07;;;;;;;;;;756198;182;940767;-63
2023/05/01 09:17:35;;;;;;;7.17;5.57;;;;;;;;;;768624;182;919436;-64
2023/05/01 09:20:01;;;;;;;14.57;6.53;;;;;;;;;;758671;182;921208;-64
2023/05/01 09:22:27;;;;;;;8.03;5.10;;;;;;;;;;754962;183;858388;-64
2023/05/01 09:24:53;;;;;;;7.90;5.30;;;;;;;;;;769939;182;817376;-64
2023/05/01 09:27:19;;;;;;;6.53;4.90;;;;;;;;;;760263;182;919087;-64
2023/05/01 09:29:44;;;;;;;8.20;5.15;;;;;;;;;;758529;182;919542;-63
2023/05/01 09:32:13;;;;;;;8.07;5.30;;;;;;;;;;767996;182;863159;-64
2023/05/01 09:34:39;;;;;;;8.00;4.47;;;;;;;;;;766481;182;918944;-65
2023/05/01 09:37:05;;;;;;;7.70;5.40;;;;;;;;;;756422;182;919162;-64
2023/05/01 09:39:31;;;;;;;9.97;4.73;;;;;;;;;;762434;182;919983;-64
2023/05/01 09:41:56;;;;;;;6.87;5.33;;;;;;;;;;769080;182;817032;-65
2023/05/01 09:44:22;;;;;;;8.90;5.17;;;;;;;;;;760724;182;815088;-64
2023/05/01 09:46:48;;;;;;;7.37;4.80;;;;;;;;;;756106;182;918521;-64
2023/05/01 09:49:14;;;;;;;6.50;4.67;;;;;;;;;;766756;181;915360;-64
2023/05/01 09:51:40;;;;;;;8.73;5.00;;;;;;;;;;746452;183;919744;-64
2023/05/01 09:54:06;;;;;;;6.87;4.97;;;;;;;;;;754416;182;919541;-64
2023/05/01 09:56:32;;;;;;;8.50;5.27;;;;;;;;;;765322;182;814448;-65
2023/05/01 09:58:58;;;;;;;8.23;4.80;;;;;;;;;;755930;182;927111;-66
2023/05/01 10:01:29;;;;;;;7.70;4.77;;;;;;;;;;761684;181;892535;-65
2023/05/01 10:03:55;;;;;;;4.22;3.28;;;;;;;;;;761699;181;919136;-65
2023/05/01 10:06:26;;;;;;;7.33;4.57;;;;;;;;;;770557;182;910389;-65
2023/05/01 10:08:51;;;;;;;5.03;4.17;;;;;;;;;;759424;182;918311;-64
2023/05/01 10:11:16;;;;;;;5.30;4.43;;;;;;;;;;762801;181;919444;-64
2023/05/01 10:13:42;;;;;;;6.30;4.23;;;;;;;;;;767221;182;918723;-67
2023/05/01 10:16:09;;;;;;;7.00;4.43;;;;;;;;;;767989;182;915988;-66
2023/05/01 10:18:34;;;;;;;6.97;4.37;;;;;;;;;;763364;182;919971;-66
2023/05/01 10:21:00;;;;;;;5.70;3.77;;;;;;;;;;763996;182;920525;-63
2023/05/01 10:23:26;;;;;;;6.73;4.30;;;;;;;;;;762557;182;917174;-64
2023/05/01 10:25:52;;;;;;;7.10;4.03;;;;;;;;;;763547;181;921762;-64
2023/05/01 10:28:17;;;;;;;9.27;4.40;;;;;;;;;;768255;181;841754;-65
2023/05/01 10:30:43;;;;;;;6.63;4.40;;;;;;;;;;769970;182;820223;-65
2023/05/01 10:33:09;;;;;;;7.00;4.10;;;;;;;;;;763076;182;912653;-65
2023/05/01 10:35:37;;;;;;;6.33;4.23;;;;;;;;;;764448;182;919722;-64
2023/05/01 10:38:02;;;;;;;11.10;4.57;;;;;;;;;;764395;182;919492;-66
2023/05/01 10:40:33;;;;;;;8.80;4.17;;;;;;;;;;762142;181;917603;-65
2023/05/01 10:43:14;;;;;;;5.63;3.90;;;;;;;;;;754277;183;864197;-65
2023/05/01 10:45:39;;;;;;;6.90;4.10;;;;;;;;;;760002;179;812109;-65
2023/05/01 10:48:06;;;;;;;7.30;4.63;;;;;;;;;;749203;183;823022;-66
2023/05/01 10:50:31;;;;;;;7.17;3.87;;;;;;;;;;766936;182;930425;-66
2023/05/01 10:53:03;;;;;;;5.90;4.37;;;;;;;;;;763784;182;918607;-66
2023/05/01 10:55:35;;;;;;;5.70;3.87;;;;;;;;;;766155;182;636878;-67
2023/05/01 10:58:00;;;;;;;5.10;3.53;;;;;;;;;;754187;182;932502;-66
2023/05/01 11:00:26;;;;;;;6.90;4.20;;;;;;;;;;768830;182;921794;-66
2023/05/01 11:02:52;;;;;;;5.30;3.90;;;;;;;;;;762118;182;943102;-66
2023/05/01 11:05:18;;;;;;;5.10;4.00;;;;;;;;;;760252;182;821017;-66
2023/05/01 11:07:43;;;;;;;5.30;3.73;;;;;;;;;;757313;184;934684;-66
2023/05/01 11:10:15;;;;;;;6.03;4.60;;;;;;;;;;760805;182;916273;-66
2023/05/01 11:12:47;;;;;;;5.57;4.10;;;;;;;;;;760567;182;833412;-66
2023/05/01 11:15:28;;;;;;;6.67;4.37;;;;;;;;;;749751;181;916013;-65
2023/05/01 11:17:54;;;;;;;4.43;3.03;;;;;;;;;;754010;182;918467;-66
2023/05/01 11:20:39;;;;;;;4.93;4.10;;;;;;;;;;757641;182;941670;-65
2023/05/01 11:23:05;;;;;;;4.80;3.57;;;;;;;;;;772438;181;919036;-66
2023/05/01 11:25:31;;;;;;;5.27;3.80;;;;;;;;;;769298;180;917225;-66
2023/05/01 11:27:57;;;;;;;6.57;3.93;;;;;;;;;;762586;181;880099;-66
2023/05/01 11:30:22;;;;;;;5.53;3.90;;;;;;;;;;756886;181;971395;-65
2023/05/01 11:32:48;;;;;;;6.77;4.10;;;;;;;;;;769810;181;918582;-66
2023/05/01 11:35:18;;;;;;;6.13;4.40;;;;;;;;;;765379;181;918199;-66
2023/05/01 11:37:44;;;;;;;4.33;3.60;;;;;;;;;;752672;182;919606;-65
2023/05/01 11:40:25;;;;;;;5.20;4.07;;;;;;;;;;765918;182;920623;-65
2023/05/01 11:42:50;;;;;;;5.53;3.80;;;;;;;;;;764234;182;844115;-66
2023/05/01 11:45:16;;;;;;;5.50;3.50;;;;;;;;;;767191;182;729681;-66
2023/05/01 11:47:42;;;;;;;4.37;3.42;;;;;;;;;;751251;182;922640;-66
2023/05/01 11:50:09;;;;;;;12.95;4.62;;;;;;;;;;755535;184;919023;-66
2023/05/01 11:52:40;;;;;;;6.00;3.53;;;;;;;;;;759819;182;877597;-66
2023/05/01 11:55:06;;;;;;;5.10;3.17;;;;;;;;;;761172;182;1043651;-66
2023/05/01 11:57:32;;;;;;;4.90;3.80;;;;;;;;;;759264;182;841088;-66
2023/05/01 11:59:58;;;;;;;5.90;3.73;;;;;;;;;;765097;182;1121948;-67
2023/05/01 12:02:24;;;;;;;4.90;3.37;;;;;;;;;;759125;182;917279;-66
2023/05/01 12:04:49;;;;;;;4.43;3.20;;;;;;;;;;761002;182;919558;-65
2023/05/01 12:07:20;;;;;;;3.83;3.00;;;;;;;;;;765804;182;918673;-65
2023/05/01 12:09:46;;;;;;;6.30;5.27;;;;;;;;;;766548;182;911820;-65
2023/05/01 12:12:12;;;;;;;5.67;3.40;;;;;;;;;;763724;182;918666;-65
2023/05/01 12:14:37;;;;;;;5.83;3.63;;;;;;;;;;762208;182;916485;-65
2023/05/01 12:17:04;;;;;;;5.80;3.70;;;;;;;;;;768084;182;915655;-66
2023/05/01 12:19:29;;;;;;;5.30;2.80;;;;;;;;;;757722;182;918726;-66
2023/05/01 12:22:01;;;;;;;5.70;3.50;;;;;;;;;;765853;182;918154;-65
2023/05/01 12:24:27;;;;;;;5.43;4.30;;;;;;;;;;760195;182;927014;-65
2023/05/01 12:26:52;;;;;;;5.50;3.53;;;;;;;;;;766695;179;903548;-64
2023/05/01 12:29:18;;;;;;;8.47;3.60;;;;;;;;;;752178;184;866486;-65
2023/05/01 12:31:45;;;;;;;7.20;4.20;;;;;;;;;;757639;182;905250;-65
2023/05/01 12:34:11;;;;;;;6.30;3.57;;;;;;;;;;770511;181;919567;-64
2023/05/01 12:36:37;;;;;;;7.10;4.20;;;;;;;;;;764366;182;920007;-64
2023/05/01 12:39:03;;;;;;;5.57;3.90;;;;;;;;;;765147;181;816163;-64
2023/05/01 12:41:34;;;;;;;4.00;3.40;;;;;;;;;;764763;181;910953;-65
2023/05/01 12:44:00;;;;;;;7.47;3.10;;;;;;;;;;767741;182;918984;-64
2023/05/01 12:46:26;;;;;;;4.97;3.40;;;;;;;;;;761550;182;941010;-64
2023/05/01 12:48:52;;;;;;;5.10;3.53;;;;;;;;;;759596;181;881573;-64
2023/05/01 12:51:19;;;;;;;6.53;3.50;;;;;;;;;;763199;181;918512;-66
2023/05/01 12:53:45;;;;;;;5.87;3.33;;;;;;;;;;754008;181;948956;-67
2023/05/01 12:56:11;;;;;;;4.60;3.60;;;;;;;;;;766106;181;951057;-64
2023/05/01 12:58:37;;;;;;;4.83;3.27;;;;;;;;;;766188;182;816125;-65
2023/05/01 13:01:03;;;;;;;4.67;2.83;;;;;;;;;;763589;181;918477;-64
2023/05/01 13:03:29;;;;;;;4.90;3.40;;;;;;;;;;761430;182;920546;-65
2023/05/01 13:05:55;;;;;;;8.30;3.77;;;;;;;;;;763079;182;919506;-66
2023/05/01 13:08:22;;;;;;;6.47;3.20;;;;;;;;;;768755;181;918961;-65
2023/05/01 13:10:48;;;;;;;6.20;3.27;;;;;;;;;;765252;182;843100;-65
2023/05/01 13:13:14;;;;;;;4.37;3.20;;;;;;;;;;763612;182;899025;-65
2023/05/01 13:15:40;;;;;;;4.63;3.50;;;;;;;;;;766705;181;814529;-64
2023/05/01 13:18:05;;;;;;;7.70;3.80;;;;;;;;;;763752;182;916488;-65
2023/05/01 13:20:31;;;;;;;5.67;3.17;;;;;;;;;;763553;181;909640;-63
2023/05/01 13:22:57;;;;;;;3.70;2.70;;;;;;;;;;764596;182;913628;-65
2023/05/01 13:25:23;;;;;;;6.97;3.40;;;;;;;;;;762614;182;919246;-65
2023/05/01 13:27:49;;;;;;;4.00;2.50;;;;;;;;;;763002;182;917308;-64
2023/05/01 13:30:15;;;;;;;5.03;3.40;;;;;;;;;;762060;181;919204;-65
2023/05/01 13:32:41;;;;;;;4.80;3.23;;;;;;;;;;769617;182;918980;-64
2023/05/01 13:35:07;;;;;;;5.07;2.33;;;;;;;;;;763463;182;918147;-65
2023/05/01 13:37:33;;;;;;;5.13;2.50;;;;;;;;;;763752;181;921021;-64
2023/05/01 13:39:59;;;;;;;3.37;2.40;;;;;;;;;;767201;182;919246;-64
2023/05/01 13:42:25;;;;;;;3.80;2.50;;;;;;;;;;761569;182;914903;-64
2023/05/01 13:44:51;;;;;;;5.43;3.03;;;;;;;;;;761813;180;787206;-65
2023/05/01 13:47:17;;;;;;;3.70;2.83;;;;;;;;;;767145;181;912708;-65
2023/05/01 13:49:43;;;;;;;5.87;2.53;;;;;;;;;;758374;182;819183;-64
2023/05/01 13:52:11;;;;;;;3.50;3.00;;;;;;;;;;763770;181;913293;-65
2023/05/01 13:54:36;;;;;;;4.47;3.17;;;;;;;;;;759018;181;912982;-65
2023/05/01 13:57:02;;;;;;;7.13;2.70;;;;;;;;;;758851;182;908537;-65
2023/05/01 13:59:28;;;;;;;8.70;2.90;;;;;;;;;;763889;182;811597;-64
2023/05/01 14:01:54;;;;;;;8.57;2.78;;;;;;;;;;763078;182;940633;-65
2023/05/01 14:04:20;;;;;;;8.10;2.97;;;;;;;;;;770631;182;917649;-65
2023/05/01 14:06:47;;;;;;;6.70;3.03;;;;;;;;;;763310;181;919128;-65
2023/05/01 14:09:12;;;;;;;4.67;3.00;;;;;;;;;;765963;182;919331;-64
2023/05/01 14:11:46;;;;;;;4.20;2.90;;;;;;;;;;767726;182;851236;-65